Time;durP1;ratioP1;P1;durP2;ratioP2;P2;SDS_P1;SDS_P2;PMS_P1;PMS_P2;Temp;Humidity;BMP_temperature;BMP_pressure;BME280_temperature;BME280_humidity;BME280_pressure;Samples;Min_cycle;Max_cycle;Signal;HPM_P1;HPM_P2
2020/12/09 00:01:45;;;;;;;34.93;15.87;;;-0.40;99.90;;;;;;4410832;32;20454;-74
2020/12/09 00:04:13;;;;;;;34.47;16.07;;;-0.50;99.90;;;;;;4412819;32;20191;-74
2020/12/09 00:06:40;;;;;;;33.10;14.53;;;-0.60;99.90;;;;;;4423577;32;20176;-75
2020/12/09 00:09:08;;;;;;;34.40;15.50;;;-0.60;99.90;;;;;;4415691;32;20175;-73
2020/12/09 00:11:35;;;;;;;33.27;15.30;;;-0.60;99.90;;;;;;4426441;32;20142;-74
2020/12/09 00:14:02;;;;;;;36.07;15.23;;;-0.60;99.90;;;;;;4427161;32;20159;-75
2020/12/09 00:16:31;;;;;;;34.67;15.37;;;-0.50;99.90;;;;;;4418487;32;20468;-74
2020/12/09 00:18:57;;;;;;;39.20;15.60;;;-0.60;99.90;;;;;;4422345;32;20481;-73
2020/12/09 00:21:24;;;;;;;39.73;15.63;;;-0.60;99.90;;;;;;4418291;32;20226;-73
2020/12/09 00:23:52;;;;;;;37.47;15.67;;;-0.60;99.90;;;;;;4425883;32;20154;-73
2020/12/09 00:26:23;;;;;;;36.27;14.97;;;-0.70;99.90;;;;;;4421186;32;20210;-73
2020/12/09 00:28:51;;;;;;;33.20;14.13;;;-0.60;99.90;;;;;;4421035;32;20226;-73
2020/12/09 00:31:20;;;;;;;33.63;14.77;;;-0.70;99.90;;;;;;4414693;32;20427;-73
2020/12/09 00:33:47;;;;;;;34.97;15.27;;;-0.70;99.90;;;;;;4417255;32;20158;-73
2020/12/09 00:36:18;;;;;;;36.03;15.07;;;-0.70;99.90;;;;;;4423534;32;20158;-73
2020/12/09 00:38:46;;;;;;;34.50;14.53;;;-0.70;99.90;;;;;;4426832;32;20262;-73
2020/12/09 00:41:22;;;;;;;35.40;15.07;;;-0.70;99.90;;;;;;4415282;32;20216;-73
2020/12/09 00:43:49;;;;;;;34.30;15.43;;;-0.70;99.90;;;;;;4414745;32;20157;-74
2020/12/09 00:46:18;;;;;;;37.37;16.07;;;-0.80;99.90;;;;;;4426583;32;20162;-74
2020/12/09 00:48:45;;;;;;;35.30;15.33;;;-0.70;99.90;;;;;;4416611;32;20377;-73
2020/12/09 00:51:16;;;;;;;33.50;14.77;;;-0.70;99.90;;;;;;4422324;32;20498;-74
2020/12/09 00:53:43;;;;;;;35.83;14.87;;;-0.70;99.90;;;;;;4414639;32;20204;-74
2020/12/09 00:56:10;;;;;;;38.80;15.83;;;-0.80;99.90;;;;;;4427044;32;20154;-73
2020/12/09 00:58:37;;;;;;;34.73;15.43;;;-0.70;99.90;;;;;;4417408;32;20222;-73
2020/12/09 01:01:05;;;;;;;37.63;15.47;;;-0.70;99.90;;;;;;4421422;32;20170;-73
2020/12/09 01:03:32;;;;;;;36.03;15.50;;;-0.70;99.90;;;;;;4413337;32;20193;-73
2020/12/09 01:05:59;;;;;;;38.63;15.70;;;-0.70;99.90;;;;;;4421185;32;20243;-73
2020/12/09 01:08:26;;;;;;;38.23;16.33;;;-0.60;99.90;;;;;;4419230;32;20186;-73
2020/12/09 01:10:54;;;;;;;35.20;15.83;;;-0.60;99.90;;;;;;4415131;32;20170;-73
2020/12/09 01:13:21;;;;;;;37.60;16.27;;;-0.60;99.90;;;;;;4423432;32;20167;-73
2020/12/09 01:15:47;;;;;;;38.10;15.70;;;-0.60;99.90;;;;;;4413631;32;20158;-73
2020/12/09 01:18:14;;;;;;;38.27;15.23;;;-0.60;99.90;;;;;;4419382;32;20147;-72
2020/12/09 01:20:40;;;;;;;36.17;15.37;;;-0.70;99.90;;;;;;4414296;32;20163;-73
2020/12/09 01:23:07;;;;;;;34.60;15.57;;;-0.70;99.90;;;;;;4426658;32;20202;-73
2020/12/09 01:25:33;;;;;;;38.13;15.30;;;-0.70;99.90;;;;;;4424781;32;20158;-73
2020/12/09 01:28:00;;;;;;;32.70;15.13;;;-0.70;99.90;;;;;;4420699;32;20374;-74
2020/12/09 01:30:28;;;;;;;34.70;15.13;;;-0.80;99.90;;;;;;4416729;32;20238;-74
2020/12/09 01:32:55;;;;;;;33.90;15.60;;;-0.80;99.90;;;;;;4414822;32;20416;-74
2020/12/09 01:35:21;;;;;;;36.10;15.23;;;-0.70;99.90;;;;;;4422330;32;20151;-74
2020/12/09 01:37:49;;;;;;;35.17;15.53;;;-0.70;99.90;;;;;;4413023;32;20445;-74
2020/12/09 01:40:16;;;;;;;36.00;15.13;;;-0.70;99.90;;;;;;4418901;32;20187;-73
2020/12/09 01:42:43;;;;;;;36.40;15.47;;;-0.80;99.90;;;;;;4419131;32;20154;-74
2020/12/09 01:45:09;;;;;;;39.07;15.00;;;-0.80;99.90;;;;;;4414678;32;20478;-75
2020/12/09 01:47:41;;;;;;;34.00;15.30;;;-0.80;99.90;;;;;;4423676;32;20218;-74
2020/12/09 01:50:07;;;;;;;33.33;14.97;;;-0.80;99.90;;;;;;4413125;32;20168;-74
2020/12/09 01:52:34;;;;;;;35.83;15.00;;;-0.80;99.90;;;;;;4425694;32;20169;-77
2020/12/09 01:55:01;;;;;;;37.97;15.83;;;-0.90;99.90;;;;;;4424788;32;20500;-75
2020/12/09 01:57:27;;;;;;;32.90;15.17;;;-0.90;99.90;;;;;;4412183;32;20156;-75
2020/12/09 01:59:54;;;;;;;32.53;14.97;;;-1.00;99.90;;;;;;4420788;32;20167;-76
2020/12/09 02:02:20;;;;;;;35.87;15.27;;;-0.90;99.90;;;;;;4416055;32;20154;-75
2020/12/09 02:04:47;;;;;;;32.67;14.63;;;-0.80;99.70;;;;;;4415385;32;20154;-75
2020/12/09 02:07:13;;;;;;;37.43;16.07;;;-0.90;99.70;;;;;;4421548;32;20144;-75
2020/12/09 02:09:40;;;;;;;36.17;15.10;;;-0.90;99.70;;;;;;4412727;32;20555;-76
2020/12/09 02:12:06;;;;;;;35.47;15.33;;;-0.90;99.90;;;;;;4419449;32;20223;-76
2020/12/09 02:14:33;;;;;;;32.67;14.37;;;-0.90;99.90;;;;;;4418685;32;20240;-75
2020/12/09 02:16:59;;;;;;;35.03;15.33;;;-0.80;99.90;;;;;;4413367;32;20385;-75
2020/12/09 02:19:27;;;;;;;34.87;14.43;;;-0.80;99.70;;;;;;4423258;32;20186;-75
2020/12/09 02:21:54;;;;;;;33.83;15.23;;;-0.90;99.60;;;;;;4414443;32;20399;-75
2020/12/09 02:24:21;;;;;;;32.50;14.67;;;-0.90;99.80;;;;;;4417247;32;20381;-76
2020/12/09 02:26:49;;;;;;;33.13;14.40;;;-0.80;99.60;;;;;;4418393;32;20423;-76
2020/12/09 02:29:18;;;;;;;37.90;15.53;;;-0.80;99.40;;;;;;4411913;32;20197;-75
2020/12/09 02:31:44;;;;;;;32.43;14.30;;;-0.90;99.40;;;;;;4421887;32;20159;-75
2020/12/09 02:34:11;;;;;;;34.77;14.80;;;-0.90;99.60;;;;;;4416199;32;20158;-74
2020/12/09 02:36:37;;;;;;;30.07;14.57;;;-0.90;99.60;;;;;;4416010;32;20170;-74
2020/12/09 02:39:07;;;;;;;31.30;14.00;;;-0.80;99.40;;;;;;4420134;32;20203;-74
2020/12/09 02:41:33;;;;;;;31.13;15.17;;;-0.80;99.10;;;;;;4412479;32;20180;-74
2020/12/09 02:43:59;;;;;;;36.80;15.50;;;-0.90;99.20;;;;;;4419735;32;20710;-76
2020/12/09 02:46:26;;;;;;;32.90;14.47;;;-1.00;99.40;;;;;;4417670;32;20462;-75
2020/12/09 02:48:53;;;;;;;33.00;14.47;;;-1.00;99.50;;;;;;4414212;32;20419;-75
2020/12/09 02:51:19;;;;;;;34.07;14.50;;;-0.90;99.60;;;;;;4423019;32;20418;-76
2020/12/09 02:53:46;;;;;;;36.23;15.23;;;-1.00;99.50;;;;;;4411467;32;20501;-75
2020/12/09 02:56:15;;;;;;;31.37;14.57;;;-0.90;99.70;;;;;;4418384;32;20200;-75
2020/12/09 02:58:42;;;;;;;34.90;14.97;;;-0.90;99.50;;;;;;4419237;32;20459;-75
2020/12/09 03:01:08;;;;;;;32.03;14.50;;;-0.90;99.50;;;;;;4413263;32;20205;-75
2020/12/09 03:03:35;;;;;;;34.60;14.30;;;-1.00;99.40;;;;;;4422730;32;20192;-75
2020/12/09 03:06:01;;;;;;;28.73;13.97;;;-1.00;99.50;;;;;;4414883;32;20171;-75
2020/12/09 03:08:28;;;;;;;31.27;14.83;;;-1.00;99.40;;;;;;4416719;32;20155;-74
2020/12/09 03:10:54;;;;;;;34.57;14.63;;;-1.10;99.60;;;;;;4420176;32;20170;-75
2020/12/09 03:13:20;;;;;;;32.40;14.57;;;-1.10;99.50;;;;;;4411435;32;20182;-74
2020/12/09 03:15:47;;;;;;;33.50;14.40;;;-1.00;99.40;;;;;;4420983;32;20148;-75
2020/12/09 03:18:13;;;;;;;31.83;14.87;;;-1.10;99.40;;;;;;4414596;32;20147;-75
2020/12/09 03:20:44;;;;;;;33.00;14.50;;;-1.20;99.50;;;;;;4415854;32;20193;-75
2020/12/09 03:23:11;;;;;;;33.20;14.80;;;-1.20;99.60;;;;;;4422074;32;20142;-75
2020/12/09 03:25:38;;;;;;;32.27;14.90;;;-1.20;99.80;;;;;;4412619;32;20187;-75
2020/12/09 03:28:04;;;;;;;29.47;13.47;;;-1.20;99.90;;;;;;4418924;32;20159;-75
2020/12/09 03:30:30;;;;;;;30.17;13.93;;;-1.20;99.90;;;;;;4416480;32;20147;-74
2020/12/09 03:32:57;;;;;;;36.77;15.10;;;-1.20;99.80;;;;;;4422132;32;20174;-75
2020/12/09 03:35:23;;;;;;;30.53;14.13;;;-1.20;99.60;;;;;;4423486;32;20193;-74
2020/12/09 03:37:49;;;;;;;32.73;14.40;;;-1.20;99.80;;;;;;4424493;32;20556;-74
2020/12/09 03:40:16;;;;;;;35.17;14.07;;;-1.20;99.90;;;;;;4423901;32;20190;-74
2020/12/09 03:42:42;;;;;;;32.77;14.83;;;-1.20;99.90;;;;;;4418574;32;20170;-74
2020/12/09 03:45:08;;;;;;;30.33;14.30;;;-1.20;99.90;;;;;;4411831;32;20584;-74
2020/12/09 03:47:35;;;;;;;33.47;13.97;;;-1.30;99.90;;;;;;4411095;32;20218;-74
2020/12/09 03:50:02;;;;;;;31.00;14.30;;;-1.20;99.90;;;;;;4411688;32;20177;-74
2020/12/09 03:52:28;;;;;;;30.97;14.23;;;-1.40;99.90;;;;;;4411592;32;20464;-75
2020/12/09 03:54:55;;;;;;;34.43;14.83;;;-1.30;99.90;;;;;;4413129;32;20391;-74
2020/12/09 03:57:21;;;;;;;32.10;14.43;;;-1.30;99.90;;;;;;4411599;32;20147;-74
2020/12/09 03:59:47;;;;;;;34.70;15.07;;;-1.40;99.90;;;;;;4412893;32;20458;-74
2020/12/09 04:02:14;;;;;;;31.77;14.50;;;-1.30;99.90;;;;;;4411082;32;20337;-74
2020/12/09 04:04:40;;;;;;;31.67;14.00;;;-1.40;99.90;;;;;;4411349;32;20151;-74
2020/12/09 04:07:07;;;;;;;32.40;14.63;;;-1.30;99.90;;;;;;4411499;32;20203;-74
2020/12/09 04:09:33;;;;;;;33.57;14.10;;;-1.20;99.90;;;;;;4411398;32;20167;-74
2020/12/09 04:12:00;;;;;;;33.70;14.13;;;-1.20;99.90;;;;;;4411351;32;20374;-74
2020/12/09 04:14:26;;;;;;;33.50;15.10;;;-1.20;99.90;;;;;;4412769;32;20398;-74
2020/12/09 04:16:52;;;;;;;32.03;14.53;;;-1.30;99.90;;;;;;4411317;32;20151;-74
2020/12/09 04:19:19;;;;;;;30.97;14.30;;;-1.30;99.90;;;;;;4411276;32;20165;-74
2020/12/09 04:21:45;;;;;;;34.80;15.33;;;-1.40;99.90;;;;;;4411406;32;20523;-74
2020/12/09 04:24:11;;;;;;;33.80;14.23;;;-1.30;99.90;;;;;;4411149;32;20167;-74
2020/12/09 04:26:38;;;;;;;35.03;15.40;;;-1.40;99.90;;;;;;4411200;32;20492;-74
2020/12/09 04:29:04;;;;;;;33.13;14.40;;;-1.30;99.90;;;;;;4412628;32;20150;-74
2020/12/09 04:31:30;;;;;;;31.47;14.27;;;-1.40;99.90;;;;;;4411151;32;20446;-74
2020/12/09 04:34:00;;;;;;;32.63;14.00;;;-1.40;99.90;;;;;;4413078;32;20476;-74
2020/12/09 04:36:28;;;;;;;28.33;14.57;;;-1.40;99.90;;;;;;4410987;32;20169;-74
2020/12/09 04:38:55;;;;;;;35.00;15.20;;;-1.40;99.90;;;;;;4416476;32;20159;-74
2020/12/09 04:41:22;;;;;;;32.53;14.53;;;-1.40;99.90;;;;;;4426004;32;20170;-74
2020/12/09 04:43:48;;;;;;;31.90;14.00;;;-1.50;99.90;;;;;;4426074;32;20139;-74
2020/12/09 04:46:15;;;;;;;35.37;15.40;;;-1.50;99.90;;;;;;4427223;32;20196;-74
2020/12/09 04:48:56;;;;;;;31.87;14.20;;;-1.50;99.90;;;;;;4425998;32;20143;-74
2020/12/09 04:51:28;;;;;;;31.23;13.53;;;-1.40;99.90;;;;;;4426525;32;20154;-74
2020/12/09 04:53:59;;;;;;;30.63;13.57;;;-1.40;99.90;;;;;;4427455;32;20151;-74
2020/12/09 04:56:37;;;;;;;33.50;14.77;;;-1.40;99.90;;;;;;4425998;32;20180;-74
2020/12/09 04:59:14;;;;;;;33.43;15.20;;;-1.40;99.90;;;;;;4420734;32;20374;-74
2020/12/09 05:02:02;;;;;;;32.10;14.27;;;-1.50;99.90;;;;;;4410691;32;20173;-74
2020/12/09 05:04:31;;;;;;;31.80;14.10;;;-1.50;99.90;;;;;;4410562;32;20151;-74
2020/12/09 05:07:05;;;;;;;32.83;14.27;;;-1.50;99.90;;;;;;4411114;32;20208;-74
2020/12/09 05:09:42;;;;;;;31.97;15.20;;;-1.50;99.90;;;;;;4410872;32;20148;-74
2020/12/09 05:12:12;;;;;;;34.43;14.77;;;-1.50;99.90;;;;;;4410539;32;20194;-74
2020/12/09 05:14:47;;;;;;;32.20;14.13;;;-1.50;99.90;;;;;;4411946;32;20213;-74
2020/12/09 05:17:19;;;;;;;32.57;13.83;;;-1.50;99.90;;;;;;4412140;32;20147;-74
2020/12/09 05:19:47;;;;;;;34.03;13.83;;;-1.60;99.90;;;;;;4412155;32;20540;-74
2020/12/09 05:22:21;;;;;;;32.37;14.20;;;-1.60;99.90;;;;;;4409792;32;20157;-74
2020/12/09 05:24:48;;;;;;;30.43;14.47;;;-1.50;99.90;;;;;;4411775;32;20157;-74
2020/12/09 05:27:14;;;;;;;32.07;14.27;;;-1.50;99.90;;;;;;4410272;32;20170;-74
2020/12/09 05:29:49;;;;;;;30.33;14.03;;;-1.40;99.90;;;;;;4410313;32;20168;-74
2020/12/09 05:32:17;;;;;;;33.80;14.47;;;-1.50;99.90;;;;;;4410151;32;20261;-74
2020/12/09 05:34:44;;;;;;;35.20;14.40;;;-1.50;99.90;;;;;;4410198;32;20147;-74
2020/12/09 05:37:12;;;;;;;34.27;15.00;;;-1.50;99.90;;;;;;4410342;32;20508;-74
2020/12/09 05:39:51;;;;;;;33.17;14.40;;;-1.50;99.90;;;;;;4411821;32;20391;-74
2020/12/09 05:42:20;;;;;;;31.93;14.33;;;-1.50;99.90;;;;;;4410174;32;20164;-74
2020/12/09 05:44:47;;;;;;;32.97;13.93;;;-1.50;99.90;;;;;;4410007;32;20170;-74
2020/12/09 05:47:13;;;;;;;33.60;14.20;;;-1.60;99.90;;;;;;4410015;32;20145;-74
2020/12/09 05:49:41;;;;;;;32.00;14.03;;;-1.60;99.90;;;;;;4410978;32;20195;-74
2020/12/09 05:52:16;;;;;;;31.33;13.77;;;-1.60;99.90;;;;;;4411441;32;20166;-74
2020/12/09 05:54:46;;;;;;;28.47;13.70;;;-1.60;99.90;;;;;;4411449;32;20212;-73
2020/12/09 05:57:15;;;;;;;34.27;14.80;;;-1.70;99.90;;;;;;4411209;32;20147;-74
2020/12/09 05:59:43;;;;;;;34.90;15.37;;;-1.70;99.90;;;;;;4409315;32;20399;-74
2020/12/09 06:02:28;;;;;;;34.70;14.20;;;-1.70;99.90;;;;;;4411183;32;20507;-74
2020/12/09 06:05:01;;;;;;;29.57;13.67;;;-1.70;99.90;;;;;;4409525;32;20508;-74
2020/12/09 06:07:30;;;;;;;36.27;13.70;;;-1.70;99.90;;;;;;4411174;32;20152;-74
2020/12/09 06:10:17;;;;;;;30.53;14.00;;;-1.70;99.90;;;;;;4409708;32;20152;-74
2020/12/09 06:12:57;;;;;;;31.43;13.53;;;-1.60;99.90;;;;;;4409679;32;20219;-74
2020/12/09 06:15:25;;;;;;;30.90;13.67;;;-1.60;99.90;;;;;;4409651;32;20368;-74
2020/12/09 06:18:03;;;;;;;31.83;13.93;;;-1.60;99.90;;;;;;4409459;32;20170;-74
2020/12/09 06:20:33;;;;;;;32.93;14.03;;;-1.60;99.90;;;;;;4409602;32;20193;-74
2020/12/09 06:23:08;;;;;;;29.63;14.10;;;-1.60;99.90;;;;;;4409615;32;20194;-74
2020/12/09 06:25:35;;;;;;;35.90;14.30;;;-1.60;99.90;;;;;;4411199;32;20401;-74
2020/12/09 06:28:06;;;;;;;29.73;14.07;;;-1.70;99.90;;;;;;4409408;32;20474;-74
2020/12/09 06:30:33;;;;;;;33.60;13.90;;;-1.60;99.90;;;;;;4409652;32;20189;-73
2020/12/09 06:33:00;;;;;;;31.83;14.20;;;-1.60;99.90;;;;;;4409510;32;20527;-74
2020/12/09 06:35:26;;;;;;;35.70;14.90;;;-1.60;99.90;;;;;;4409377;32;20211;-74
2020/12/09 06:38:22;;;;;;;36.17;14.27;;;-1.60;99.90;;;;;;4408330;32;20155;-74
2020/12/09 06:40:57;;;;;;;33.57;14.37;;;-1.60;99.90;;;;;;4378496;32;20214;-73
2020/12/09 06:43:24;;;;;;;30.87;14.43;;;-1.60;99.90;;;;;;4378414;32;20155;-73
2020/12/09 06:45:50;;;;;;;35.20;14.40;;;-1.60;99.90;;;;;;4378433;32;20168;-74
2020/12/09 06:48:17;;;;;;;30.43;13.87;;;-1.60;99.90;;;;;;4376607;32;20166;-74
2020/12/09 06:50:45;;;;;;;29.53;13.60;;;-1.60;99.90;;;;;;4377400;32;20153;-74
2020/12/09 06:53:20;;;;;;;31.50;13.70;;;-1.60;99.90;;;;;;4377744;32;20441;-74
2020/12/09 06:55:48;;;;;;;33.13;13.90;;;-1.60;99.90;;;;;;4378306;32;20144;-74
2020/12/09 06:58:28;;;;;;;32.43;14.43;;;-1.60;99.90;;;;;;4376806;32;20160;-73
2020/12/09 07:00:59;;;;;;;33.13;14.77;;;-1.60;99.90;;;;;;4378288;32;20152;-74
2020/12/09 07:03:27;;;;;;;34.10;14.13;;;-1.50;99.90;;;;;;4377026;32;20229;-74
2020/12/09 07:05:54;;;;;;;33.30;14.90;;;-1.50;99.90;;;;;;4376427;32;20160;-74
2020/12/09 07:08:21;;;;;;;33.97;14.40;;;-1.40;99.90;;;;;;4376529;32;20207;-74
2020/12/09 07:10:48;;;;;;;32.93;15.27;;;-1.40;99.90;;;;;;4380844;32;20152;-74
2020/12/09 07:13:18;;;;;;;37.43;15.03;;;-1.50;99.90;;;;;;4379564;32;20403;-74
2020/12/09 07:15:49;;;;;;;31.00;14.40;;;-1.50;99.90;;;;;;4379534;32;20172;-74
2020/12/09 07:18:16;;;;;;;33.80;14.53;;;-1.60;99.90;;;;;;4410974;32;20195;-74
2020/12/09 07:20:46;;;;;;;33.47;14.97;;;-1.50;99.90;;;;;;4411882;32;20143;-74
2020/12/09 07:23:13;;;;;;;32.83;14.30;;;-1.50;99.90;;;;;;4412028;32;20165;-74
2020/12/09 07:25:39;;;;;;;35.07;14.37;;;-1.30;99.90;;;;;;4411804;32;20159;-72
2020/12/09 07:28:06;;;;;;;32.43;13.90;;;-1.40;99.90;;;;;;4411997;32;20228;-73
2020/12/09 07:30:33;;;;;;;33.70;14.57;;;-1.40;99.90;;;;;;4411774;32;20169;-74
2020/12/09 07:33:00;;;;;;;37.27;14.73;;;-1.50;99.90;;;;;;4411820;32;20445;-73
2020/12/09 07:35:27;;;;;;;36.60;15.30;;;-1.50;99.90;;;;;;4411233;32;20556;-73
2020/12/09 07:37:57;;;;;;;40.73;15.00;;;-1.50;99.90;;;;;;4413394;32;20522;-73
2020/12/09 07:40:29;;;;;;;36.57;14.37;;;-1.50;99.90;;;;;;4411641;32;20148;-72
2020/12/09 07:43:10;;;;;;;34.20;14.57;;;-1.50;99.90;;;;;;4413289;32;20245;-73
2020/12/09 07:45:39;;;;;;;32.27;14.00;;;-1.50;99.90;;;;;;4414896;32;20379;-73
2020/12/09 07:48:14;;;;;;;32.30;14.40;;;-1.50;99.90;;;;;;4417526;32;20449;-72
2020/12/09 07:50:48;;;;;;;34.93;14.00;;;-1.50;99.90;;;;;;4412854;32;20154;-72
2020/12/09 07:53:15;;;;;;;34.37;14.73;;;-1.50;99.90;;;;;;4412000;32;20525;-73
2020/12/09 07:55:42;;;;;;;34.97;14.73;;;-1.50;99.90;;;;;;4410969;32;20147;-73
2020/12/09 07:58:10;;;;;;;34.60;14.53;;;-1.50;99.90;;;;;;4413239;32;20148;-73
2020/12/09 08:00:41;;;;;;;38.13;15.00;;;-1.50;99.90;;;;;;4412915;32;20458;-74
2020/12/09 08:03:17;;;;;;;35.23;14.27;;;-1.50;99.90;;;;;;4411446;32;20204;-75
2020/12/09 08:05:44;;;;;;;34.93;15.23;;;-1.40;99.90;;;;;;4413274;32;20394;-73
2020/12/09 08:08:13;;;;;;;33.13;13.97;;;-1.40;99.90;;;;;;4412824;32;20170;-71
2020/12/09 08:10:45;;;;;;;33.87;14.13;;;-1.40;99.90;;;;;;4411162;32;20178;-74
2020/12/09 08:13:25;;;;;;;36.13;15.37;;;-1.30;99.90;;;;;;4412741;32;20196;-73
2020/12/09 08:16:08;;;;;;;35.67;14.23;;;-1.30;99.90;;;;;;4412613;32;20151;-72
2020/12/09 08:18:36;;;;;;;34.30;14.80;;;-1.40;99.90;;;;;;4411172;32;20173;-73
2020/12/09 08:21:03;;;;;;;33.37;14.50;;;-1.30;99.90;;;;;;4411810;32;20163;-72
2020/12/09 08:23:46;;;;;;;35.53;15.00;;;-1.40;99.90;;;;;;4411299;32;20190;-73
2020/12/09 08:26:29;;;;;;;34.17;14.27;;;-1.40;99.90;;;;;;4410739;32;20233;-72
2020/12/09 08:28:57;;;;;;;30.50;14.43;;;-1.40;99.90;;;;;;4412572;32;20212;-73
2020/12/09 08:31:23;;;;;;;33.50;14.10;;;-1.30;99.90;;;;;;4410186;32;20155;-73
2020/12/09 08:33:53;;;;;;;34.13;15.03;;;-1.20;99.90;;;;;;4412669;32;20151;-73
2020/12/09 08:36:21;;;;;;;34.33;14.93;;;-1.20;99.90;;;;;;4411069;32;20278;-72
2020/12/09 08:38:57;;;;;;;34.20;14.37;;;-1.20;99.90;;;;;;4411735;32;20151;-73
2020/12/09 08:41:35;;;;;;;36.67;15.03;;;-1.30;99.90;;;;;;4410686;32;20158;-73
2020/12/09 08:44:05;;;;;;;33.77;14.33;;;-1.30;99.90;;;;;;4412542;32;20147;-74
2020/12/09 08:46:32;;;;;;;36.13;14.07;;;-1.30;99.90;;;;;;4411414;32;20159;-74
2020/12/09 08:48:59;;;;;;;35.37;13.77;;;-1.20;99.90;;;;;;4414418;32;20156;-72
2020/12/09 08:51:31;;;;;;;32.80;14.07;;;-1.20;99.90;;;;;;4420183;32;20210;-72
2020/12/09 08:54:00;;;;;;;29.63;13.40;;;-1.10;99.90;;;;;;4423210;32;20468;-72
2020/12/09 08:56:28;;;;;;;29.83;13.47;;;-1.10;99.90;;;;;;4414194;32;20219;-72
2020/12/09 08:58:54;;;;;;;29.17;13.73;;;-1.10;99.90;;;;;;4418439;32;20157;-72
2020/12/09 09:01:21;;;;;;;30.10;13.17;;;-1.20;99.90;;;;;;4419697;32;20147;-74
2020/12/09 09:03:54;;;;;;;34.53;14.40;;;-1.20;99.90;;;;;;4412943;32;20178;-72
2020/12/09 09:06:20;;;;;;;32.10;13.63;;;-1.30;99.90;;;;;;4413350;32;20208;-72
2020/12/09 09:08:47;;;;;;;36.93;14.53;;;-1.30;99.90;;;;;;4425755;32;20182;-73
2020/12/09 09:11:24;;;;;;;31.07;13.73;;;-1.30;99.90;;;;;;4416399;32;20527;-72
2020/12/09 09:13:52;;;;;;;31.30;14.13;;;-1.30;99.90;;;;;;4423613;32;20215;-72
2020/12/09 09:16:19;;;;;;;35.53;14.57;;;-1.10;99.90;;;;;;4413120;32;20151;-72
2020/12/09 09:18:46;;;;;;;33.07;14.20;;;-1.10;99.90;;;;;;4419440;32;20182;-73
2020/12/09 09:21:13;;;;;;;34.93;13.80;;;-1.10;99.90;;;;;;4418658;32;20170;-73
2020/12/09 09:23:40;;;;;;;27.93;12.90;;;-1.10;99.90;;;;;;4413356;32;20534;-74
2020/12/09 09:26:11;;;;;;;26.47;12.90;;;-1.10;99.90;;;;;;4423841;32;20273;-74
2020/12/09 09:28:39;;;;;;;30.87;12.63;;;-1.20;99.90;;;;;;4416687;32;20484;-72
2020/12/09 09:31:06;;;;;;;34.83;14.10;;;-1.10;99.90;;;;;;4418338;32;20199;-73
2020/12/09 09:33:33;;;;;;;28.10;13.03;;;-1.00;99.90;;;;;;4420075;32;20158;-73
2020/12/09 09:36:00;;;;;;;36.37;13.87;;;-0.90;99.90;;;;;;4412187;32;20148;-74
2020/12/09 09:38:27;;;;;;;36.40;13.70;;;-0.90;99.90;;;;;;4421174;32;20151;-75
2020/12/09 09:40:53;;;;;;;32.17;13.27;;;-1.00;99.90;;;;;;4416164;32;20178;-73
2020/12/09 09:43:20;;;;;;;32.23;14.40;;;-1.00;99.90;;;;;;4414648;32;20199;-73
2020/12/09 09:45:47;;;;;;;28.43;13.43;;;-0.90;99.90;;;;;;4421867;32;20181;-72
2020/12/09 09:48:14;;;;;;;30.20;13.70;;;-0.90;99.90;;;;;;4412119;32;20143;-73
2020/12/09 09:50:41;;;;;;;28.33;13.27;;;-0.90;99.90;;;;;;4420806;32;20202;-74
2020/12/09 09:53:07;;;;;;;30.97;13.57;;;-0.90;99.90;;;;;;4417698;32;20150;-74
2020/12/09 09:55:34;;;;;;;31.43;14.00;;;-0.90;99.90;;;;;;4413803;32;20193;-74
2020/12/09 09:58:00;;;;;;;32.37;14.50;;;-0.90;99.90;;;;;;4422441;32;20167;-74
2020/12/09 10:00:26;;;;;;;33.43;14.13;;;-0.80;99.90;;;;;;4413453;32;20151;-73
2020/12/09 10:02:53;;;;;;;33.63;14.40;;;-0.80;99.90;;;;;;4417309;32;20177;-74
2020/12/09 10:05:19;;;;;;;35.00;13.93;;;-0.70;99.90;;;;;;4418767;32;20201;-74
2020/12/09 10:07:46;;;;;;;32.00;14.20;;;-0.70;99.90;;;;;;4414854;32;20516;-74
2020/12/09 10:10:12;;;;;;;30.40;13.80;;;-0.80;99.90;;;;;;4420547;32;20425;-74
2020/12/09 10:12:39;;;;;;;31.97;13.97;;;-0.70;99.90;;;;;;4423473;32;20222;-74
2020/12/09 10:15:05;;;;;;;31.23;14.23;;;-0.70;99.90;;;;;;4416366;32;20178;-74
2020/12/09 10:17:32;;;;;;;31.57;13.03;;;-0.80;99.90;;;;;;4419870;32;20149;-74
2020/12/09 10:19:59;;;;;;;31.10;13.73;;;-0.80;99.90;;;;;;4413017;32;20163;-74
2020/12/09 10:22:27;;;;;;;28.10;13.00;;;-0.80;99.90;;;;;;4422040;32;20186;-74
2020/12/09 10:24:54;;;;;;;32.57;14.00;;;-0.80;99.90;;;;;;4415664;32;20414;-74
2020/12/09 10:27:21;;;;;;;33.97;14.10;;;-0.70;99.90;;;;;;4414721;32;20189;-74
2020/12/09 10:29:48;;;;;;;37.90;14.23;;;-0.60;99.90;;;;;;4421438;32;20211;-74
2020/12/09 10:32:15;;;;;;;31.47;13.80;;;-0.60;99.90;;;;;;4411480;32;20154;-74
2020/12/09 10:34:41;;;;;;;32.57;14.03;;;-0.60;99.90;;;;;;4420214;32;20202;-73
2020/12/09 10:37:09;;;;;;;27.87;13.00;;;-0.70;99.90;;;;;;4418515;32;20215;-74
2020/12/09 10:39:36;;;;;;;35.30;14.63;;;-0.70;99.90;;;;;;4413122;32;20245;-74
2020/12/09 10:42:03;;;;;;;32.90;14.47;;;-0.70;99.90;;;;;;4421501;32;20279;-71
2020/12/09 10:44:29;;;;;;;32.97;14.10;;;-0.60;99.90;;;;;;4411205;32;20226;-74
2020/12/09 10:46:56;;;;;;;32.73;14.33;;;-0.60;99.90;;;;;;4418342;32;20338;-75
2020/12/09 10:49:22;;;;;;;34.13;14.13;;;-0.70;99.90;;;;;;4416429;32;20189;-74
2020/12/09 10:51:50;;;;;;;32.37;13.60;;;-0.60;99.90;;;;;;4417647;32;20414;-74
2020/12/09 10:54:18;;;;;;;32.77;13.93;;;-0.50;99.90;;;;;;4412351;32;20167;-74
2020/12/09 10:56:45;;;;;;;34.60;14.20;;;-0.60;99.90;;;;;;4424278;32;20159;-74
2020/12/09 10:59:17;;;;;;;32.53;14.40;;;-0.60;99.90;;;;;;4414816;32;20183;-75
2020/12/09 11:01:46;;;;;;;31.50;13.23;;;-0.60;99.90;;;;;;4416246;32;20162;-75
2020/12/09 11:04:12;;;;;;;33.87;14.57;;;-0.60;99.90;;;;;;4420790;32;20183;-74
2020/12/09 11:06:39;;;;;;;30.47;13.60;;;-0.70;99.90;;;;;;4418272;32;20237;-76
2020/12/09 11:09:07;;;;;;;33.10;13.37;;;-0.70;99.90;;;;;;4417094;32;20236;-74
2020/12/09 11:11:34;;;;;;;32.50;14.00;;;-0.60;99.90;;;;;;4424760;32;20181;-73
2020/12/09 11:14:01;;;;;;;31.77;13.83;;;-0.60;99.90;;;;;;4423119;32;20485;-75
2020/12/09 11:16:28;;;;;;;32.00;13.93;;;-0.50;99.90;;;;;;4412584;32;20174;-72
2020/12/09 11:18:54;;;;;;;33.03;14.27;;;-0.60;99.90;;;;;;4417050;32;20155;-72
2020/12/09 11:21:24;;;;;;;32.57;13.87;;;-0.60;99.90;;;;;;4418044;32;20170;-74
2020/12/09 11:23:51;;;;;;;36.87;15.30;;;-0.60;99.90;;;;;;4411075;32;20509;-73
2020/12/09 11:26:19;;;;;;;31.93;13.60;;;-0.60;99.90;;;;;;4422270;32;20216;-75
2020/12/09 11:28:47;;;;;;;34.70;13.60;;;-0.60;99.90;;;;;;4414373;32;20207;-73
2020/12/09 11:31:13;;;;;;;31.20;14.13;;;-0.60;99.90;;;;;;4414784;32;20194;-74
2020/12/09 11:33:40;;;;;;;31.53;14.50;;;-0.50;99.90;;;;;;4420040;32;20148;-74
2020/12/09 11:36:07;;;;;;;33.77;14.30;;;-0.50;99.90;;;;;;4410607;32;20203;-73
2020/12/09 11:38:33;;;;;;;30.27;13.90;;;-0.50;99.90;;;;;;4420655;32;20147;-74
2020/12/09 11:41:00;;;;;;;38.60;14.90;;;-0.40;99.90;;;;;;4415853;32;20158;-74
2020/12/09 11:43:27;;;;;;;34.57;14.37;;;-0.40;99.90;;;;;;4413327;32;20455;-74
2020/12/09 11:45:57;;;;;;;35.77;14.50;;;-0.30;99.90;;;;;;4420845;32;20155;-75
2020/12/09 11:48:25;;;;;;;32.20;13.97;;;-0.50;99.90;;;;;;4413530;32;20146;-75
2020/12/09 11:50:52;;;;;;;38.00;14.90;;;-0.60;99.90;;;;;;4417250;32;20489;-73
2020/12/09 11:53:19;;;;;;;36.60;15.13;;;-0.50;99.90;;;;;;4417613;32;20227;-73
2020/12/09 11:55:46;;;;;;;38.07;15.53;;;-0.50;99.90;;;;;;4414075;32;20218;-74
2020/12/09 11:58:13;;;;;;;35.50;14.33;;;-0.50;99.90;;;;;;4423096;32;20185;-74
2020/12/09 12:00:39;;;;;;;36.97;14.80;;;-0.40;99.90;;;;;;4416357;32;20200;-76
2020/12/09 12:03:06;;;;;;;37.50;14.83;;;-0.40;99.90;;;;;;4419856;32;20208;-75
2020/12/09 12:05:34;;;;;;;37.60;14.93;;;-0.40;99.90;;;;;;4423297;32;20176;-74
2020/12/09 12:08:04;;;;;;;35.53;14.80;;;-0.40;99.90;;;;;;4413591;32;20143;-74
2020/12/09 12:10:32;;;;;;;31.50;13.93;;;-0.30;99.90;;;;;;4422461;32;20155;-74
2020/12/09 12:12:59;;;;;;;35.83;14.27;;;-0.40;99.90;;;;;;4419348;32;20173;-73
2020/12/09 12:15:26;;;;;;;37.83;15.00;;;-0.40;99.90;;;;;;4417436;32;20233;-73
2020/12/09 12:17:53;;;;;;;38.40;15.80;;;-0.50;99.90;;;;;;4423536;32;20181;-74
2020/12/09 12:20:19;;;;;;;34.10;14.43;;;-0.60;99.90;;;;;;4415519;32;20207;-73
2020/12/09 12:22:46;;;;;;;35.27;15.13;;;-0.60;99.90;;;;;;4420703;32;20174;-73
2020/12/09 12:25:12;;;;;;;32.40;14.67;;;-0.60;99.90;;;;;;4420402;32;20416;-74
2020/12/09 12:27:39;;;;;;;36.53;15.47;;;-0.60;99.90;;;;;;4414627;32;20201;-74
2020/12/09 12:30:06;;;;;;;35.53;15.83;;;-0.50;99.90;;;;;;4423110;32;20189;-73
2020/12/09 12:32:32;;;;;;;41.47;15.53;;;-0.50;99.90;;;;;;4414722;32;20163;-73
2020/12/09 12:34:59;;;;;;;36.90;15.07;;;-0.50;99.90;;;;;;4418627;32;20239;-75